M I D A S
Marine Information and Data Acquisition System
Tripno 523 of the Zeeleeuw from 2003-06-24 06:22:32 to 2003-06-24 11:27:24
Back to CruiseResearch ActivitiesStationsMapUnderway DataData graphs

EquipmentUnitsComment
TimeDGPSUTC
LatitudeDGPSDM.mWGS84
LongitudeDGPSDM.mWGS84
HeadingGyrodeg 
SOGDGPSknotsSpeed over ground
COGDGPSdegCourse over ground
DepthEcho soundermeters200 kHz
Missing or incorrect values are displayed as -999
Navigation data collected by the RV Zeeleeuw from 2003-06-24 06:22:32 to 2003-06-24 11:27:24
Time Latitude Longitude Heading SOG COG Depth
2003-06-24 06:23:36 51°13.59 2°56.13 115.8 0.1 196 8.9
2003-06-24 06:24:36 51°13.59 2°56.13 112.8 1.1 296 9.2
2003-06-24 06:25:38 51°13.6 2°56.07 111.6 3 288 -999
2003-06-24 06:26:40 51°13.62 2°55.98 118.3 3.9 293 -999
2003-06-24 06:27:40 51°13.65 2°55.89 122.4 4 298 -999
2003-06-24 06:28:40 51°13.69 2°55.79 133.6 4.3 309 -999
2003-06-24 06:29:40 51°13.73 2°55.73 156.3 1.9 327 12.3
2003-06-24 06:30:36 51°13.73 2°55.72 201.3 1.5 201 12.6
2003-06-24 06:31:36 51°13.72 2°55.71 227.3 0.8 42 12.5
2003-06-24 06:32:38 51°13.73 2°55.73 239.5 0.3 274 4.7
2003-06-24 06:33:36 51°13.73 2°55.7 280.4 0.1 118 12.5
2003-06-24 06:34:36 51°13.73 2°55.7 314.3 1.7 309 -999
2003-06-24 06:35:36 51°13.79 2°55.64 337.7 6 334 12.4
2003-06-24 06:36:36 51°13.9 2°55.57 342.7 7.6 337 12.8
2003-06-24 06:37:36 51°14.02 2°55.49 341.8 7.7 337 12.7
2003-06-24 06:38:36 51°14.13 2°55.41 337.7 7.7 333 12.6
2003-06-24 06:39:36 51°14.24 2°55.29 322.4 8.2 317 12.7
2003-06-24 06:40:36 51°14.33 2°55.11 313.7 9.5 308 11.9
2003-06-24 06:41:36 51°14.48 2°54.95 328 11.4 329 11.4
2003-06-24 06:42:44 51°14.67 2°54.76 328.3 12 328 10.9
2003-06-24 06:43:56 51°14.88 2°54.56 329.2 12.6 328 10.8
2003-06-24 06:44:56 51°15.06 2°54.38 329.5 13.1 328 10.1
2003-06-24 06:46:00 51°15.26 2°54.17 328.6 13.5 327 10.8
2003-06-24 06:47:12 51°15.49 2°53.94 329.6 13.5 327 11.6
2003-06-24 06:48:16 51°15.69 2°53.74 334.5 13.7 333 12.5
2003-06-24 06:49:24 51°15.92 2°53.55 334.1 13.8 332 13.3
2003-06-24 06:50:32 51°16.15 2°53.36 334.5 13.7 332 13.5
2003-06-24 06:51:36 51°16.37 2°53.18 334.3 13.6 332 13.9
2003-06-24 06:52:40 51°16.58 2°53 334.5 13.4 332 13.3
2003-06-24 06:53:40 51°16.77 2°52.84 334 13.3 331 11.5
2003-06-24 06:54:48 51°17 2°52.65 335.8 13.5 335 11.9
2003-06-24 06:55:50 51°17.23 2°52.6 359.2 13.7 356 11.3
2003-06-24 06:56:56 51°17.48 2°52.57 359.3 13.8 357 11.8
2003-06-24 06:58:00 51°17.72 2°52.54 359 13.8 357 12
2003-06-24 06:59:02 51°17.96 2°52.51 359.4 13.9 357 12.4
2003-06-24 07:00:10 51°18.22 2°52.49 359.6 13.9 358 12.6
2003-06-24 07:01:10 51°18.43 2°52.63 53.1 13.9 52 12.9
2003-06-24 07:02:20 51°18.54 2°53.03 68.9 14.5 66 13
2003-06-24 07:03:30 51°18.66 2°53.44 69.8 14.5 66 13.1
2003-06-24 07:04:36 51°18.78 2°53.82 68.6 14.7 64 13.1
2003-06-24 07:05:34 51°18.88 2°54.16 69.4 14.7 65 13.1
2003-06-24 07:06:44 51°19 2°54.57 69.1 14.7 65 13.1
2003-06-24 07:07:50 51°19.11 2°54.96 68.7 14.8 65 13.1
2003-06-24 07:08:56 51°19.23 2°55.35 69.6 14.8 65 13.1
2003-06-24 07:10:04 51°19.35 2°55.76 69.6 14.8 65 13.1
2003-06-24 07:11:04 51°19.45 2°56.12 69.1 14.9 65 13
2003-06-24 07:12:16 51°19.58 2°56.54 69.2 14.9 65 12.9
2003-06-24 07:13:24 51°19.69 2°56.95 69.3 14.9 65 12.8
2003-06-24 07:14:36 51°19.82 2°57.38 69.4 14.8 66 12.8
2003-06-24 07:15:40 51°19.93 2°57.76 69.9 14.8 66 12.6
2003-06-24 07:16:50 51°20.04 2°58.18 71.8 14.9 68 12.7
2003-06-24 07:17:50 51°20.14 2°58.55 70.9 14.8 67 12.5
2003-06-24 07:18:56 51°20.24 2°58.95 74.1 14.8 70 12.4
2003-06-24 07:20:10 51°20.35 2°59.4 73.2 14.9 69 12.2
2003-06-24 07:21:14 51°20.44 2°59.8 73.7 14.9 69 12.2
2003-06-24 07:22:20 51°20.54 3°0.21 73.8 14.9 70 12.1
2003-06-24 07:23:30 51°20.64 3°0.64 72.9 14.9 68 12
2003-06-24 07:24:40 51°20.75 3°1.07 73.4 14.9 70 12
2003-06-24 07:25:50 51°20.85 3°1.5 74 14.8 70 12
2003-06-24 07:26:54 51°20.95 3°1.9 74 15 69 12.1
2003-06-24 07:28:04 51°21.05 3°2.33 73.3 15.1 69 12.4
2003-06-24 07:29:04 51°21.14 3°2.7 74.4 15 69 12.4
2003-06-24 07:30:16 51°21.24 3°3.15 76.6 15 72 12.5
2003-06-24 07:31:20 51°21.32 3°3.56 76.8 15 72 12.5
2003-06-24 07:32:20 51°21.4 3°3.94 77.9 15.1 73 12.5
2003-06-24 07:33:20 51°21.47 3°4.33 78 15.1 74 12.5
2003-06-24 07:34:24 51°21.55 3°4.74 77.1 15.2 73 12.8
2003-06-24 07:35:24 51°21.62 3°5.12 77.5 15.1 73 12.8
2003-06-24 07:36:36 51°21.71 3°5.59 77.3 15.2 73 12.7
2003-06-24 07:37:40 51°21.78 3°6 79.1 15 75 13
2003-06-24 07:38:40 51°21.84 3°6.39 81.2 15.1 77 13.1
2003-06-24 07:39:40 51°21.9 3°6.78 81 15.2 77 13.2
2003-06-24 07:40:44 51°21.96 3°7.2 81.4 15.2 78 13.4
2003-06-24 07:41:44 51°22.01 3°7.6 81.7 15.2 78 13.6
2003-06-24 07:42:48 51°22.07 3°8.02 81 15.3 77 13.5
2003-06-24 07:43:48 51°22.12 3°8.42 82.5 15.4 80 13.8
2003-06-24 07:44:56 51°22.18 3°8.88 82 15.3 78 14
2003-06-24 07:46:00 51°22.24 3°9.31 82.3 15.4 78 14.5
2003-06-24 07:47:00 51°22.29 3°9.71 81.9 15.6 78 15
2003-06-24 07:48:00 51°22.34 3°10.12 82 15.6 79 15.6
2003-06-24 07:49:10 51°22.4 3°10.59 82.7 15.5 79 19.8
2003-06-24 07:50:10 51°22.45 3°10.99 82.1 15.5 78 17.1
2003-06-24 07:51:10 51°22.5 3°11.4 82.4 15.6 78 17.1
2003-06-24 07:52:16 51°22.56 3°11.85 82.3 15.6 79 16.3
2003-06-24 07:53:16 51°22.61 3°12.26 81.9 15.7 79 15.5
2003-06-24 07:54:14 51°22.66 3°12.65 81.9 15.6 78 15
2003-06-24 07:55:14 51°22.71 3°13.06 82.7 15.6 79 14.1
2003-06-24 07:56:24 51°22.76 3°13.54 82.5 15.6 80 13
2003-06-24 07:57:24 51°22.86 3°13.91 42.1 14.7 42 12.5
2003-06-24 07:58:24 51°23.07 3°13.96 332.9 12.3 335 12.5
2003-06-24 07:59:30 51°23.24 3°13.72 313 12.4 314 12.5
2003-06-24 08:00:36 51°23.4 3°13.46 314 12.5 315 13.2
2003-06-24 08:01:36 51°23.55 3°13.23 313.7 12.5 315 12.9
2003-06-24 08:02:36 51°23.7 3°12.99 314 12.5 316 12.6
2003-06-24 08:03:36 51°23.82 3°12.74 298.5 12.2 298 13.6
2003-06-24 08:04:34 51°23.92 3°12.46 297.9 12.3 299 14.6
2003-06-24 08:05:36 51°24.02 3°12.16 298.7 12.2 299 15.7
2003-06-24 08:06:36 51°24.11 3°11.88 298.9 12.2 299 18.3
2003-06-24 08:07:36 51°24.21 3°11.6 298.6 12.1 299 20
2003-06-24 08:08:34 51°24.28 3°11.31 278.7 11.7 276 20.6
2003-06-24 08:09:36 51°24.29 3°10.99 277.7 12.1 275 20.1
2003-06-24 08:10:36 51°24.31 3°10.66 279.3 12.4 276 19.9
2003-06-24 08:11:34 51°24.32 3°10.34 268.7 12.5 264 19.5
2003-06-24 08:12:36 51°24.29 3°10 268.4 12.6 264 19.5
2003-06-24 08:13:36 51°24.27 3°9.67 268.4 12.4 264 19.3
2003-06-24 08:14:36 51°24.25 3°9.34 268.5 12.4 264 19.3
2003-06-24 08:15:36 51°24.24 3°9.01 269.2 12.5 265 19.2
2003-06-24 08:16:36 51°24.22 3°8.68 269 12.5 265 19.2
2003-06-24 08:17:36 51°24.2 3°8.34 269.8 12.5 265 19.4
2003-06-24 08:18:36 51°24.18 3°8.01 269.1 12.6 264 19.8
2003-06-24 08:19:36 51°24.16 3°7.68 269.3 12.4 265 20
2003-06-24 08:20:36 51°24.14 3°7.35 269.2 12.1 266 20.1
2003-06-24 08:21:36 51°24.12 3°7.03 269.6 12.3 265 20.3
2003-06-24 08:22:36 51°24.1 3°6.71 268.6 12.2 265 20.2
2003-06-24 08:23:36 51°24.08 3°6.38 269.2 12.4 266 20.2
2003-06-24 08:24:36 51°24.13 3°6.06 292.2 12.5 289 20.1
2003-06-24 08:25:36 51°24.21 3°5.76 296.1 12.6 294 18.2
2003-06-24 08:26:36 51°24.3 3°5.45 295.8 12.7 295 17.9
2003-06-24 08:27:36 51°24.39 3°5.14 295 12.8 293 17.6
2003-06-24 08:28:36 51°24.47 3°4.83 293.9 12.6 293 17.3
2003-06-24 08:29:36 51°24.55 3°4.52 295.2 12.4 294 17.3
2003-06-24 08:30:36 51°24.63 3°4.22 294 13 294 17.2
2003-06-24 08:31:36 51°24.72 3°3.9 293.9 12.7 295 17.5
2003-06-24 08:32:36 51°24.81 3°3.62 295.9 12.9 295 17
2003-06-24 08:33:36 51°24.89 3°3.31 290.7 12.6 291 16.7
2003-06-24 08:34:36 51°24.96 3°2.99 288.3 12.7 288 16.7
2003-06-24 08:35:36 51°25.03 3°2.67 288.7 12.8 288 16.3
2003-06-24 08:36:36 51°25.09 3°2.34 290.3 13.2 287 16.2
2003-06-24 08:37:36 51°25.15 3°2.01 289.3 12.8 287 16
2003-06-24 08:38:36 51°25.21 3°1.68 289.2 13.1 287 15.3
2003-06-24 08:39:36 51°25.28 3°1.35 289.3 12.9 287 15.5
2003-06-24 08:40:36 51°25.37 3°1.04 310.1 13.3 311 15.5
2003-06-24 08:41:36 51°25.55 3°0.84 340.6 13.7 342 15.8
2003-06-24 08:42:36 51°25.79 3°0.81 359.2 14.1 357 15.2
2003-06-24 08:43:36 51°26.02 3°0.79 358.7 14.3 357 14.2
2003-06-24 08:44:36 51°26.26 3°0.77 359.2 14.4 358 16.4
2003-06-24 08:45:36 51°26.5 3°0.75 358.7 14.5 357 20.1
2003-06-24 08:46:36 51°26.74 3°0.74 359.2 14.6 358 24.6
2003-06-24 08:47:36 51°26.99 3°0.72 359.7 14.6 358 25.7
2003-06-24 08:48:36 51°27.23 3°0.71 358.9 14.7 358 25.9
2003-06-24 08:49:36 51°27.47 3°0.69 359.7 14.6 358 25.5
2003-06-24 08:50:36 51°27.72 3°0.68 359 14.6 359 24.6
2003-06-24 08:51:36 51°27.96 3°0.67 359 14.7 358 22.6
2003-06-24 08:52:36 51°28.2 3°0.65 359.2 14.6 359 22.8
2003-06-24 08:53:36 51°28.44 3°0.64 359.4 14.5 358 22.5
2003-06-24 08:54:36 51°28.69 3°0.62 359.8 14.4   22.6
2003-06-24 08:55:36 51°28.93 3°0.61 358.6 14.5 359 26.2
2003-06-24 08:56:36 51°29.17 3°0.61 359.4 14.5 359 28.5
2003-06-24 08:57:36 51°29.41 3°0.6 359.2 14.4 359 30.1
2003-06-24 08:58:36 51°29.65 3°0.6 359 14.4 359 30
2003-06-24 08:59:36 51°29.89 3°0.59 358.6 14.4 358 29.6
2003-06-24 09:00:36 51°30.13 3°0.59 359.5 14.4   29.4
2003-06-24 09:01:36 51°30.37 3°0.58 358.9 14.5 358 28.9
2003-06-24 09:02:36 51°30.61 3°0.57 359.7 14.6 359 28.5
2003-06-24 09:03:36 51°30.86 3°0.56 359.2 14.5 359 29
2003-06-24 09:04:36 51°31.1 3°0.56 359.2 14.5 359 28.6
2003-06-24 09:05:36 51°31.34 3°0.55 0.9 14.4 1 27.9
2003-06-24 09:06:36 51°31.58 3°0.56 1.4 14.5 1 27.6
2003-06-24 09:07:36 51°31.82 3°0.57 3 14.6 2 26.1
2003-06-24 09:08:36 51°32.06 3°0.59 3.7 14.6 3 25
2003-06-24 09:09:36 51°32.31 3°0.64 8.5 14.7 8 27.5
2003-06-24 09:10:36 51°32.55 3°0.69 9.3 14.7 9 29.8
2003-06-24 09:11:36 51°32.79 3°0.74 8.7 14.7 8 33.6
2003-06-24 09:12:36 51°33.03 3°0.79 8.2 14.5 6 34.4
2003-06-24 09:13:36 51°33.28 3°0.83 8.3 14.6 6 35.3
2003-06-24 09:14:36 51°33.52 3°0.87 8.3 14.5 5 34.4
2003-06-24 09:15:36 51°33.76 3°0.91 7.9 14.3 6 20.2
2003-06-24 09:16:36 51°33.99 3°0.94 7.2 14.5 3 16.5
2003-06-24 09:17:36 51°34.23 3°0.98 7.7 14.3 4 16.7
2003-06-24 09:18:36 51°34.43 3°0.83 308.4 13 304 17.4
2003-06-24 09:19:36 51°34.42 3°0.51 241.8 12.4 239 18.8
2003-06-24 09:20:36 51°34.29 3°0.24 236.6 12.7 234 17.8
2003-06-24 09:21:36 51°34.17 2°59.96 237.2 12.7 234 18.1
2003-06-24 09:22:36 51°34.04 2°59.69 234.2 12.7 232 20.6
2003-06-24 09:23:36 51°33.91 2°59.43 234.4 12.6 230 21
2003-06-24 09:24:36 51°33.77 2°59.17 233.7 12.6 230 20.1
2003-06-24 09:25:36 51°33.64 2°58.9 234.3 12.7 232 20.2
2003-06-24 09:26:36 51°33.51 2°58.64 233.8 12.7 230 20.4
2003-06-24 09:27:36 51°33.37 2°58.38 233.9 12.7 230 20.7
2003-06-24 09:28:36 51°33.24 2°58.12 234.4 12.6 231 20.8
2003-06-24 09:29:36 51°33.11 2°57.85 233.9 12.6 230 19.9
2003-06-24 09:30:36 51°32.97 2°57.59 233.9 12.7 230 21.3
2003-06-24 09:31:36 51°32.84 2°57.33 234.5 12.7 231 22.4
2003-06-24 09:32:36 51°32.71 2°57.07 234.2 12.7 230 23
2003-06-24 09:33:36 51°32.57 2°56.81 233.9 12.6 230 23.7
2003-06-24 09:34:36 51°32.44 2°56.55 234.4 12.6 230 21.1
2003-06-24 09:35:36 51°32.31 2°56.29 234.7 12.6 230 23.1
2003-06-24 09:36:36 51°32.18 2°56.03 235.8 12.6 232 23.5
2003-06-24 09:37:36 51°32.05 2°55.75 238.9 12.6 235 23
2003-06-24 09:38:36 51°31.93 2°55.48 238.1 12.6 235 21.1
2003-06-24 09:39:36 51°31.81 2°55.2 238.5 12.6 236 22
2003-06-24 09:40:36 51°31.69 2°54.93 238.8 12.7 235 22.1
2003-06-24 09:41:36 51°31.57 2°54.65 237.9 12.6 235 20.5
2003-06-24 09:42:36 51°31.45 2°54.37 240.2 12.6 236 21.7
2003-06-24 09:43:36 51°31.34 2°54.09 240.3 12.7 238 19.2
2003-06-24 09:44:36 51°31.23 2°53.8 240 12.6 237 21.6
2003-06-24 09:45:36 51°31.11 2°53.52 240.2 12.7 238 21.7
2003-06-24 09:46:36 51°31 2°53.23 240.7 12.7 236 21
2003-06-24 09:47:36 51°30.89 2°52.95 240.2 12.7 238 21.4
2003-06-24 09:48:36 51°30.78 2°52.67 240.3 12.6 238 21.2
2003-06-24 09:49:36 51°30.66 2°52.38 238.7 12.7 236 20.1
2003-06-24 09:50:36 51°30.55 2°52.1 240.6 12.3 238 21.8
2003-06-24 09:51:36 51°30.44 2°51.82 239.8 12.3 236 23.9
2003-06-24 09:52:36 51°30.33 2°51.54 240.8 12.4 239 24
2003-06-24 09:53:36 51°30.22 2°51.26 240.6 12.5 239 25.2
2003-06-24 09:54:36 51°30.11 2°50.98 240.9 12.4 239 26
2003-06-24 09:55:36 51°30 2°50.71 239.9 12.4 238 24.6
2003-06-24 09:56:36 51°29.89 2°50.42 240.6 12.4 238 28.1
2003-06-24 09:57:36 51°29.78 2°50.14 240 12.4 238 28.8
2003-06-24 09:58:36 51°29.67 2°49.86 239.9 12.4 238 31.3
2003-06-24 09:59:36 51°29.56 2°49.58 239.8 12.4 239 29
2003-06-24 10:00:36 51°29.45 2°49.3 239.8 12.5 239 27.4
2003-06-24 10:01:36 51°29.34 2°49.02 240.5 12.4 239 27.6
2003-06-24 10:02:36 51°29.23 2°48.74 239.5 12.4 234 28.1
2003-06-24 10:03:36 51°29.06 2°48.56 205.6 12.6 200 28.2
2003-06-24 10:04:36 51°28.85 2°48.5 192.5 13.1 184 30.3
2003-06-24 10:05:36 51°28.63 2°48.55 172.5 13.5 164 31.8
2003-06-24 10:06:36 51°28.42 2°48.64 173.1 13.6 166 27.7
2003-06-24 10:07:36 51°28.2 2°48.73 173.2 13.4 166 26.6
2003-06-24 10:08:36 51°27.98 2°48.81 174.8 13.3 167 27.3
2003-06-24 10:09:36 51°27.77 2°48.89 173.3 13.4 166 27.1
2003-06-24 10:10:36 51°27.55 2°48.97 174.3 13.3 168 26.3
2003-06-24 10:11:36 51°27.33 2°49.04 174 13.2 167 26
2003-06-24 10:12:36 51°27.12 2°49.12 174.1 13.3 168 24.9
2003-06-24 10:13:36 51°26.9 2°49.13 194 12.8 191 24.1
2003-06-24 10:14:36 51°26.7 2°49.02 209.6 12.7 205 23.4
2003-06-24 10:15:36 51°26.53 2°48.83 227.7 12.4 226 21.6
2003-06-24 10:16:36 51°26.41 2°48.56 242.3 12.5 240 22
2003-06-24 10:17:36 51°26.3 2°48.28 240.9 12.5 238 20.6
2003-06-24 10:18:36 51°26.19 2°47.99 240.3 12.5 238 20.8
2003-06-24 10:19:36 51°26.08 2°47.71 239.7 12.6 237 22.7
2003-06-24 10:20:36 51°25.96 2°47.44 234.2 12.6 232 23.4
2003-06-24 10:21:36 51°25.82 2°47.19 229.8 12.6 227 22.6
2003-06-24 10:22:36 51°25.66 2°46.97 219 12.5 213 26.3
2003-06-24 10:23:36 51°25.48 2°46.81 212.6 12.5 208 25.5
2003-06-24 10:24:36 51°25.29 2°46.66 211.6 12.5 207 25.8
2003-06-24 10:25:36 51°25.11 2°46.5 212 12.5 207 26.1
2003-06-24 10:26:36 51°24.92 2°46.35 209.8 12.6 205 26
2003-06-24 10:27:36 51°24.73 2°46.21 208.3 12.8 204 26.2
2003-06-24 10:28:36 51°24.53 2°46.09 201.4 12.9 196 26.9
2003-06-24 10:29:36 51°24.32 2°45.99 199.1 12.8 195 27.6
2003-06-24 10:30:36 51°24.11 2°45.91 196.5 13 191 28.2
2003-06-24 10:31:36 51°23.9 2°45.85 195.8 13.2 192 28.6
2003-06-24 10:32:36 51°23.68 2°45.78 195.9 13 192 28.1
2003-06-24 10:33:36 51°23.47 2°45.7 196.7 13.2 192 28
2003-06-24 10:34:36 51°23.26 2°45.63 196 13 192 28.1
2003-06-24 10:35:36 51°23.04 2°45.57 192.4 13.1 189 27
2003-06-24 10:36:36 51°22.83 2°45.52 193.3 13.3 190 27.8
2003-06-24 10:37:36 51°22.61 2°45.46 191.7 13.3 188 25.9
2003-06-24 10:38:36 51°22.39 2°45.44 189.4 13.1 187 24.1
2003-06-24 10:39:36 51°22.21 2°45.36 216.6 9.1 214 23.9
2003-06-24 10:40:36 51°22.14 2°45.24 232.9 4.8 228 24.2
2003-06-24 10:41:36 51°22.09 2°45.17 232.1 3.3 227 23.1
2003-06-24 10:42:36 51°22.06 2°45.11 225.1 3.5 215 23.6
2003-06-24 10:43:36 51°21.95 2°45.12 162.7 9.1 153 23.3
2003-06-24 10:44:36 51°21.82 2°45.32 137.2 13.3 132 23.3
2003-06-24 10:45:36 51°21.67 2°45.59 137.8 13.9 131 24.6
2003-06-24 10:46:36 51°21.51 2°45.86 140.8 13.9 133 26.3
2003-06-24 10:47:36 51°21.35 2°46.12 140.8 13.9 133 26.7
2003-06-24 10:48:36 51°21.18 2°46.38 143.4 14 136 25.9
2003-06-24 10:49:36 51°21.01 2°46.64 142.6 14 136 24.1
2003-06-24 10:50:36 51°20.84 2°46.9 141.6 13.9 135 22.6
2003-06-24 10:51:36 51°20.67 2°47.15 142.5 13.9 137 19.4
2003-06-24 10:52:36 51°20.5 2°47.41 142.9 13.7 137 17.9
2003-06-24 10:53:36 51°20.34 2°47.65 142.3 13.8 137 21.5
2003-06-24 10:54:36 51°20.16 2°47.9 142.3 13.8 138 22.9
2003-06-24 10:55:36 51°20 2°48.15 141.6 13.8 135 23.1
2003-06-24 10:56:36 51°19.83 2°48.4 143 13.7 137 22.9
2003-06-24 10:57:36 51°19.66 2°48.64 142.2 13.7 137 20.4
2003-06-24 10:58:36 51°19.5 2°48.9 139.8 14 134 18
2003-06-24 10:59:36 51°19.34 2°49.17 140.6 14 135 14.4
2003-06-24 11:00:36 51°19.17 2°49.43 140.1 13.9 135 14.1
2003-06-24 11:01:36 51°19.01 2°49.68 141.5 13.7 137 11.9
2003-06-24 11:02:36 51°18.84 2°49.94 140.8 14.1 136 13.4
2003-06-24 11:03:36 51°18.67 2°50.19 143.2 13.9 139 14.9
2003-06-24 11:04:36 51°18.49 2°50.44 143.2 14 139 15.3
2003-06-24 11:05:36 51°18.32 2°50.69 141 14 135 14.7
2003-06-24 11:06:36 51°18.17 2°50.97 133 13.8 129 13.7
2003-06-24 11:07:36 51°18.03 2°51.26 133 13.7 128 12.4
2003-06-24 11:08:36 51°17.88 2°51.54 134.1 13.6 130 11.4
2003-06-24 11:09:36 51°17.74 2°51.82 134.5 13.6 130 11.2
2003-06-24 11:10:36 51°17.59 2°52.1 134.1 13.7 129 11.5
2003-06-24 11:11:36 51°17.41 2°52.3 160.2 13.5 158 11.4
2003-06-24 11:12:36 51°17.2 2°52.43 161.4 13.5 159 11
2003-06-24 11:13:36 51°16.99 2°52.57 160.5 13.6 156 10.8
2003-06-24 11:14:36 51°16.79 2°52.72 159.6 13.7 155 10.5
2003-06-24 11:15:36 51°16.58 2°52.87 159.3 13.6 155 12.5
2003-06-24 11:16:36 51°16.38 2°53.02 159.3 13.7 156 13.3
2003-06-24 11:17:36 51°16.17 2°53.17 159.6 13.6 156 13.1
2003-06-24 11:18:36 51°15.96 2°53.32 159.1 13.7 156 12.7
2003-06-24 11:19:36 51°15.74 2°53.46 159.5 13.8 157 12.3
2003-06-24 11:20:36 51°15.54 2°53.63 155.2 13.8 151 11.6
2003-06-24 11:21:36 51°15.34 2°53.8 154.8 13.8 153 10.7
2003-06-24 11:22:36 51°15.14 2°53.97 154.8 13.7 153 10.1
2003-06-24 11:23:36 51°14.95 2°54.17 141.7 13.5 138 9.6
2003-06-24 11:24:36 51°14.79 2°54.39 141.8 12.4 136 10.6
2003-06-24 11:25:36 51°14.64 2°54.6 141.6 11.8 138 10.5
2003-06-24 11:26:36 51°14.49 2°54.81 140.9 11.9 139 11.1